sensor_id;sensor_type;location;lat;lon;timestamp;temperature;humidity
6865;DHT22;3471;49.678;8.388;2023-01-10T00:00:50;7.90;99.90
6865;DHT22;3471;49.678;8.388;2023-01-10T00:03:15;7.90;99.90
6865;DHT22;3471;49.678;8.388;2023-01-10T00:05:41;7.90;99.90
6865;DHT22;3471;49.678;8.388;2023-01-10T00:08:09;7.90;99.90
6865;DHT22;3471;49.678;8.388;2023-01-10T00:10:35;7.90;99.90
6865;DHT22;3471;49.678;8.388;2023-01-10T00:13:01;7.90;99.90
6865;DHT22;3471;49.678;8.388;2023-01-10T00:15:46;7.90;99.90
6865;DHT22;3471;49.678;8.388;2023-01-10T00:18:11;7.90;99.90
6865;DHT22;3471;49.678;8.388;2023-01-10T00:20:37;7.90;99.90
6865;DHT22;3471;49.678;8.388;2023-01-10T00:23:03;7.90;99.90
6865;DHT22;3471;49.678;8.388;2023-01-10T00:25:29;7.90;99.90
6865;DHT22;3471;49.678;8.388;2023-01-10T00:27:57;7.90;99.90
6865;DHT22;3471;49.678;8.388;2023-01-10T00:30:37;8.00;99.90
6865;DHT22;3471;49.678;8.388;2023-01-10T00:33:03;8.00;99.90
6865;DHT22;3471;49.678;8.388;2023-01-10T00:35:29;8.00;99.90
6865;DHT22;3471;49.678;8.388;2023-01-10T00:37:54;8.00;99.90
6865;DHT22;3471;49.678;8.388;2023-01-10T00:40:25;8.00;99.90
6865;DHT22;3471;49.678;8.388;2023-01-10T00:42:51;7.90;99.90
6865;DHT22;3471;49.678;8.388;2023-01-10T00:45:35;7.90;99.90
6865;DHT22;3471;49.678;8.388;2023-01-10T00:48:01;7.80;99.90
6865;DHT22;3471;49.678;8.388;2023-01-10T00:50:27;7.70;99.90
6865;DHT22;3471;49.678;8.388;2023-01-10T00:52:52;7.70;99.90
6865;DHT22;3471;49.678;8.388;2023-01-10T00:55:18;7.60;99.90
6865;DHT22;3471;49.678;8.388;2023-01-10T00:57:43;7.60;99.90
6865;DHT22;3471;49.678;8.388;2023-01-10T01:00:09;7.50;99.90
6865;DHT22;3471;49.678;8.388;2023-01-10T01:02:36;7.40;99.90
6865;DHT22;3471;49.678;8.388;2023-01-10T01:05:03;7.40;99.90
6865;DHT22;3471;49.678;8.388;2023-01-10T01:07:28;7.40;99.90
6865;DHT22;3471;49.678;8.388;2023-01-10T01:09:54;7.30;99.90
6865;DHT22;3471;49.678;8.388;2023-01-10T01:12:38;7.30;99.90
6865;DHT22;3471;49.678;8.388;2023-01-10T01:15:04;7.10;99.90
6865;DHT22;3471;49.678;8.388;2023-01-10T01:17:30;7.10;99.90
6865;DHT22;3471;49.678;8.388;2023-01-10T01:19:55;7.00;99.90
6865;DHT22;3471;49.678;8.388;2023-01-10T01:22:21;6.90;99.90
6865;DHT22;3471;49.678;8.388;2023-01-10T01:24:46;6.90;99.90
6865;DHT22;3471;49.678;8.388;2023-01-10T01:27:12;6.80;99.90
6865;DHT22;3471;49.678;8.388;2023-01-10T01:29:38;6.70;99.90
6865;DHT22;3471;49.678;8.388;2023-01-10T01:32:03;6.70;99.90
6865;DHT22;3471;49.678;8.388;2023-01-10T01:34:29;6.70;99.90
6865;DHT22;3471;49.678;8.388;2023-01-10T01:36:54;6.70;99.90
6865;DHT22;3471;49.678;8.388;2023-01-10T01:39:22;6.70;99.90
6865;DHT22;3471;49.678;8.388;2023-01-10T01:41:47;6.70;99.90
6865;DHT22;3471;49.678;8.388;2023-01-10T01:44:22;6.60;99.90
6865;DHT22;3471;49.678;8.388;2023-01-10T01:47:17;6.60;99.90
6865;DHT22;3471;49.678;8.388;2023-01-10T01:49:45;6.60;99.90
6865;DHT22;3471;49.678;8.388;2023-01-10T01:52:24;6.60;99.90
6865;DHT22;3471;49.678;8.388;2023-01-10T01:54:54;6.60;99.90
6865;DHT22;3471;49.678;8.388;2023-01-10T01:57:24;6.50;99.90
6865;DHT22;3471;49.678;8.388;2023-01-10T01:59:52;6.50;99.90
6865;DHT22;3471;49.678;8.388;2023-01-10T02:02:28;6.60;99.90
6865;DHT22;3471;49.678;8.388;2023-01-10T02:05:09;6.60;99.90
6865;DHT22;3471;49.678;8.388;2023-01-10T02:07:38;6.60;99.90
6865;DHT22;3471;49.678;8.388;2023-01-10T02:12:44;6.80;99.90
6865;DHT22;3471;49.678;8.388;2023-01-10T02:15:10;6.80;99.90
6865;DHT22;3471;49.678;8.388;2023-01-10T02:17:37;6.90;99.90
6865;DHT22;3471;49.678;8.388;2023-01-10T02:20:06;7.00;99.90
6865;DHT22;3471;49.678;8.388;2023-01-10T02:28:28;7.10;99.90
6865;DHT22;3471;49.678;8.388;2023-01-10T02:31:22;7.10;99.90
6865;DHT22;3471;49.678;8.388;2023-01-10T02:34:06;7.10;99.90
6865;DHT22;3471;49.678;8.388;2023-01-10T02:42:29;7.20;99.90
6865;DHT22;3471;49.678;8.388;2023-01-10T02:45:01;7.20;99.90
6865;DHT22;3471;49.678;8.388;2023-01-10T02:47:40;7.30;99.90
6865;DHT22;3471;49.678;8.388;2023-01-10T02:50:29;7.30;99.90
6865;DHT22;3471;49.678;8.388;2023-01-10T02:52:59;7.30;99.90
6865;DHT22;3471;49.678;8.388;2023-01-10T02:55:37;7.30;99.90
6865;DHT22;3471;49.678;8.388;2023-01-10T02:58:17;7.30;99.90
6865;DHT22;3471;49.678;8.388;2023-01-10T03:03:43;7.30;99.90
6865;DHT22;3471;49.678;8.388;2023-01-10T03:09:09;7.10;99.90
6865;DHT22;3471;49.678;8.388;2023-01-10T03:11:39;6.90;99.90
6865;DHT22;3471;49.678;8.388;2023-01-10T03:16:39;6.80;99.90
6865;DHT22;3471;49.678;8.388;2023-01-10T03:19:16;6.80;99.90
6865;DHT22;3471;49.678;8.388;2023-01-10T03:21:43;6.80;99.90
6865;DHT22;3471;49.678;8.388;2023-01-10T03:24:16;6.70;99.90
6865;DHT22;3471;49.678;8.388;2023-01-10T03:30:02;6.70;99.90
6865;DHT22;3471;49.678;8.388;2023-01-10T03:32:30;6.70;99.90
6865;DHT22;3471;49.678;8.388;2023-01-10T03:34:58;6.70;99.90
6865;DHT22;3471;49.678;8.388;2023-01-10T03:37:44;6.80;99.90
6865;DHT22;3471;49.678;8.388;2023-01-10T03:40:16;6.80;99.90
6865;DHT22;3471;49.678;8.388;2023-01-10T03:45:43;6.90;99.90
6865;DHT22;3471;49.678;8.388;2023-01-10T03:48:15;6.90;99.90
6865;DHT22;3471;49.678;8.388;2023-01-10T03:50:42;7.00;99.90
6865;DHT22;3471;49.678;8.388;2023-01-10T03:53:11;7.00;99.90
6865;DHT22;3471;49.678;8.388;2023-01-10T03:55:37;7.00;99.90
6865;DHT22;3471;49.678;8.388;2023-01-10T03:58:05;7.00;99.90
6865;DHT22;3471;49.678;8.388;2023-01-10T04:00:31;7.00;99.90
6865;DHT22;3471;49.678;8.388;2023-01-10T04:02:57;7.00;99.90
6865;DHT22;3471;49.678;8.388;2023-01-10T04:05:23;7.00;99.90
6865;DHT22;3471;49.678;8.388;2023-01-10T04:07:49;7.00;99.90
6865;DHT22;3471;49.678;8.388;2023-01-10T04:10:15;7.00;99.90
6865;DHT22;3471;49.678;8.388;2023-01-10T04:12:40;7.00;99.90
6865;DHT22;3471;49.678;8.388;2023-01-10T04:15:06;6.90;99.90
6865;DHT22;3471;49.678;8.388;2023-01-10T04:17:32;6.90;99.90
6865;DHT22;3471;49.678;8.388;2023-01-10T04:19:57;6.90;99.90
6865;DHT22;3471;49.678;8.388;2023-01-10T04:22:23;6.90;99.90
6865;DHT22;3471;49.678;8.388;2023-01-10T04:24:49;6.90;99.90
6865;DHT22;3471;49.678;8.388;2023-01-10T04:27:16;6.90;99.90
6865;DHT22;3471;49.678;8.388;2023-01-10T04:29:42;6.90;99.90
6865;DHT22;3471;49.678;8.388;2023-01-10T04:32:07;6.80;99.90
6865;DHT22;3471;49.678;8.388;2023-01-10T04:34:33;6.80;99.90
6865;DHT22;3471;49.678;8.388;2023-01-10T04:36:58;6.80;99.90
6865;DHT22;3471;49.678;8.388;2023-01-10T04:39:24;6.80;99.90
6865;DHT22;3471;49.678;8.388;2023-01-10T04:41:49;6.80;99.90
6865;DHT22;3471;49.678;8.388;2023-01-10T04:44:15;6.80;99.90
6865;DHT22;3471;49.678;8.388;2023-01-10T04:46:41;6.70;99.90
6865;DHT22;3471;49.678;8.388;2023-01-10T04:49:08;6.70;99.90
6865;DHT22;3471;49.678;8.388;2023-01-10T04:51:34;6.70;99.90
6865;DHT22;3471;49.678;8.388;2023-01-10T04:53:59;6.60;99.90
6865;DHT22;3471;49.678;8.388;2023-01-10T04:56:25;6.50;99.90
6865;DHT22;3471;49.678;8.388;2023-01-10T04:58:50;6.50;99.90
6865;DHT22;3471;49.678;8.388;2023-01-10T05:01:21;6.50;99.90
6865;DHT22;3471;49.678;8.388;2023-01-10T05:03:52;6.50;99.90
6865;DHT22;3471;49.678;8.388;2023-01-10T05:06:19;6.50;99.90
6865;DHT22;3471;49.678;8.388;2023-01-10T05:08:46;6.50;99.90
6865;DHT22;3471;49.678;8.388;2023-01-10T05:11:12;6.50;99.90
6865;DHT22;3471;49.678;8.388;2023-01-10T05:13:38;6.60;99.90
6865;DHT22;3471;49.678;8.388;2023-01-10T05:16:04;6.50;99.90
6865;DHT22;3471;49.678;8.388;2023-01-10T05:18:30;6.50;99.90
6865;DHT22;3471;49.678;8.388;2023-01-10T05:21:07;6.50;99.90
6865;DHT22;3471;49.678;8.388;2023-01-10T05:23:33;6.60;99.90
6865;DHT22;3471;49.678;8.388;2023-01-10T05:26:12;6.60;99.90
6865;DHT22;3471;49.678;8.388;2023-01-10T05:28:38;6.60;99.90
6865;DHT22;3471;49.678;8.388;2023-01-10T05:31:09;6.60;99.90
6865;DHT22;3471;49.678;8.388;2023-01-10T05:33:35;6.60;99.90
6865;DHT22;3471;49.678;8.388;2023-01-10T05:36:02;6.60;99.90
6865;DHT22;3471;49.678;8.388;2023-01-10T05:38:29;6.60;99.90
6865;DHT22;3471;49.678;8.388;2023-01-10T05:40:56;6.60;99.90
6865;DHT22;3471;49.678;8.388;2023-01-10T05:43:24;6.70;99.90
6865;DHT22;3471;49.678;8.388;2023-01-10T05:45:50;6.70;99.90
6865;DHT22;3471;49.678;8.388;2023-01-10T05:48:16;6.70;99.90
6865;DHT22;3471;49.678;8.388;2023-01-10T05:50:42;6.70;99.90
6865;DHT22;3471;49.678;8.388;2023-01-10T05:53:07;6.80;99.90
6865;DHT22;3471;49.678;8.388;2023-01-10T05:55:33;6.80;99.90
6865;DHT22;3471;49.678;8.388;2023-01-10T05:57:59;6.80;99.90
6865;DHT22;3471;49.678;8.388;2023-01-10T06:00:24;6.80;99.90
6865;DHT22;3471;49.678;8.388;2023-01-10T06:02:52;6.80;99.90
6865;DHT22;3471;49.678;8.388;2023-01-10T06:05:18;6.80;99.90
6865;DHT22;3471;49.678;8.388;2023-01-10T06:07:44;6.90;99.90
6865;DHT22;3471;49.678;8.388;2023-01-10T06:10:09;6.90;99.90
6865;DHT22;3471;49.678;8.388;2023-01-10T06:12:38;6.90;99.90
6865;DHT22;3471;49.678;8.388;2023-01-10T06:15:05;6.90;99.90
6865;DHT22;3471;49.678;8.388;2023-01-10T06:17:31;7.00;99.90
6865;DHT22;3471;49.678;8.388;2023-01-10T06:19:57;7.00;99.90
6865;DHT22;3471;49.678;8.388;2023-01-10T06:22:22;7.00;99.90
6865;DHT22;3471;49.678;8.388;2023-01-10T06:24:48;7.00;99.90
6865;DHT22;3471;49.678;8.388;2023-01-10T06:27:13;7.00;99.90
6865;DHT22;3471;49.678;8.388;2023-01-10T06:29:39;7.10;99.90
6865;DHT22;3471;49.678;8.388;2023-01-10T06:32:04;7.00;99.90
6865;DHT22;3471;49.678;8.388;2023-01-10T06:34:30;7.10;99.90
6865;DHT22;3471;49.678;8.388;2023-01-10T06:36:55;7.10;99.90
6865;DHT22;3471;49.678;8.388;2023-01-10T06:39:21;7.00;99.90
6865;DHT22;3471;49.678;8.388;2023-01-10T06:41:47;7.10;99.90
6865;DHT22;3471;49.678;8.388;2023-01-10T06:44:12;7.10;99.90
6865;DHT22;3471;49.678;8.388;2023-01-10T06:46:38;7.10;99.90
6865;DHT22;3471;49.678;8.388;2023-01-10T06:49:04;7.10;99.90
6865;DHT22;3471;49.678;8.388;2023-01-10T06:51:29;7.10;99.90
6865;DHT22;3471;49.678;8.388;2023-01-10T06:53:55;7.10;99.90
6865;DHT22;3471;49.678;8.388;2023-01-10T06:56:20;7.10;99.90
6865;DHT22;3471;49.678;8.388;2023-01-10T06:58:48;7.10;99.90
6865;DHT22;3471;49.678;8.388;2023-01-10T07:01:16;7.10;99.90
6865;DHT22;3471;49.678;8.388;2023-01-10T07:03:42;7.00;99.90
6865;DHT22;3471;49.678;8.388;2023-01-10T07:06:08;7.00;99.90
6865;DHT22;3471;49.678;8.388;2023-01-10T07:08:36;6.90;99.90
6865;DHT22;3471;49.678;8.388;2023-01-10T07:11:01;6.90;99.90
6865;DHT22;3471;49.678;8.388;2023-01-10T07:13:27;6.90;99.90
6865;DHT22;3471;49.678;8.388;2023-01-10T07:16:07;6.90;99.90
6865;DHT22;3471;49.678;8.388;2023-01-10T07:18:35;6.80;99.90
6865;DHT22;3471;49.678;8.388;2023-01-10T07:21:01;6.90;99.90
6865;DHT22;3471;49.678;8.388;2023-01-10T07:23:27;6.90;99.90
6865;DHT22;3471;49.678;8.388;2023-01-10T07:25:52;6.80;99.90
6865;DHT22;3471;49.678;8.388;2023-01-10T07:28:18;6.80;99.90
6865;DHT22;3471;49.678;8.388;2023-01-10T07:30:44;6.80;99.90
6865;DHT22;3471;49.678;8.388;2023-01-10T07:33:09;6.80;99.90
6865;DHT22;3471;49.678;8.388;2023-01-10T07:35:35;6.80;99.90
6865;DHT22;3471;49.678;8.388;2023-01-10T07:38:00;6.80;99.90
6865;DHT22;3471;49.678;8.388;2023-01-10T07:40:28;6.80;99.90
6865;DHT22;3471;49.678;8.388;2023-01-10T07:43:01;6.90;99.90
6865;DHT22;3471;49.678;8.388;2023-01-10T07:45:28;6.90;99.90
6865;DHT22;3471;49.678;8.388;2023-01-10T07:47:58;6.90;99.90
6865;DHT22;3471;49.678;8.388;2023-01-10T07:50:26;6.90;99.90
6865;DHT22;3471;49.678;8.388;2023-01-10T07:52:52;6.90;99.90
6865;DHT22;3471;49.678;8.388;2023-01-10T07:55:18;6.90;99.90
6865;DHT22;3471;49.678;8.388;2023-01-10T07:57:43;6.90;99.90
6865;DHT22;3471;49.678;8.388;2023-01-10T08:00:11;7.00;99.90
6865;DHT22;3471;49.678;8.388;2023-01-10T08:02:36;7.00;99.90
6865;DHT22;3471;49.678;8.388;2023-01-10T08:05:02;7.00;99.90
6865;DHT22;3471;49.678;8.388;2023-01-10T08:07:29;7.10;99.90
6865;DHT22;3471;49.678;8.388;2023-01-10T08:09:54;7.10;99.90
6865;DHT22;3471;49.678;8.388;2023-01-10T08:12:21;7.20;99.90
6865;DHT22;3471;49.678;8.388;2023-01-10T08:14:49;7.30;99.90
6865;DHT22;3471;49.678;8.388;2023-01-10T08:17:19;7.30;99.90
6865;DHT22;3471;49.678;8.388;2023-01-10T08:19:45;7.40;99.90
6865;DHT22;3471;49.678;8.388;2023-01-10T08:22:11;7.40;99.90
6865;DHT22;3471;49.678;8.388;2023-01-10T08:24:37;7.40;99.90
6865;DHT22;3471;49.678;8.388;2023-01-10T08:27:02;7.40;99.90
6865;DHT22;3471;49.678;8.388;2023-01-10T08:29:28;7.30;99.90
6865;DHT22;3471;49.678;8.388;2023-01-10T08:31:54;7.30;99.90
6865;DHT22;3471;49.678;8.388;2023-01-10T08:34:20;7.30;99.90
6865;DHT22;3471;49.678;8.388;2023-01-10T08:36:52;7.30;99.90
6865;DHT22;3471;49.678;8.388;2023-01-10T08:39:19;7.40;99.90
6865;DHT22;3471;49.678;8.388;2023-01-10T08:41:47;7.40;99.90
6865;DHT22;3471;49.678;8.388;2023-01-10T08:44:13;7.40;99.90
6865;DHT22;3471;49.678;8.388;2023-01-10T08:46:40;7.40;99.90
6865;DHT22;3471;49.678;8.388;2023-01-10T08:49:06;7.40;99.90
6865;DHT22;3471;49.678;8.388;2023-01-10T08:51:32;7.40;99.90
6865;DHT22;3471;49.678;8.388;2023-01-10T08:53:57;7.40;99.90
6865;DHT22;3471;49.678;8.388;2023-01-10T08:56:23;7.40;99.90
6865;DHT22;3471;49.678;8.388;2023-01-10T08:58:48;7.50;99.90
6865;DHT22;3471;49.678;8.388;2023-01-10T09:01:14;7.50;99.90
6865;DHT22;3471;49.678;8.388;2023-01-10T09:03:39;7.50;99.90
6865;DHT22;3471;49.678;8.388;2023-01-10T09:06:05;7.40;99.90
6865;DHT22;3471;49.678;8.388;2023-01-10T09:08:33;7.50;99.90
6865;DHT22;3471;49.678;8.388;2023-01-10T09:10:59;7.50;99.90
6865;DHT22;3471;49.678;8.388;2023-01-10T09:13:26;7.50;99.90
6865;DHT22;3471;49.678;8.388;2023-01-10T09:15:53;7.60;99.90
6865;DHT22;3471;49.678;8.388;2023-01-10T09:18:19;7.60;99.90
6865;DHT22;3471;49.678;8.388;2023-01-10T09:20:44;7.50;99.90
6865;DHT22;3471;49.678;8.388;2023-01-10T09:23:13;7.60;99.90
6865;DHT22;3471;49.678;8.388;2023-01-10T09:25:50;7.60;99.90
6865;DHT22;3471;49.678;8.388;2023-01-10T09:28:16;7.60;99.90
6865;DHT22;3471;49.678;8.388;2023-01-10T09:30:42;7.60;99.90
6865;DHT22;3471;49.678;8.388;2023-01-10T09:33:08;7.60;99.90
6865;DHT22;3471;49.678;8.388;2023-01-10T09:35:36;7.70;99.90
6865;DHT22;3471;49.678;8.388;2023-01-10T09:38:02;7.70;99.90
6865;DHT22;3471;49.678;8.388;2023-01-10T09:49:47;7.90;99.90
6865;DHT22;3471;49.678;8.388;2023-01-10T09:52:27;7.90;99.90
6865;DHT22;3471;49.678;8.388;2023-01-10T09:54:56;8.00;99.90
6865;DHT22;3471;49.678;8.388;2023-01-10T09:57:23;8.10;99.90
6865;DHT22;3471;49.678;8.388;2023-01-10T09:59:50;8.10;99.90
6865;DHT22;3471;49.678;8.388;2023-01-10T10:07:23;8.10;99.90
6865;DHT22;3471;49.678;8.388;2023-01-10T10:09:48;8.10;99.90
6865;DHT22;3471;49.678;8.388;2023-01-10T10:20:33;8.10;99.90
6865;DHT22;3471;49.678;8.388;2023-01-10T10:25:53;8.20;99.90
6865;DHT22;3471;49.678;8.388;2023-01-10T10:31:19;8.30;99.90
6865;DHT22;3471;49.678;8.388;2023-01-10T10:34:07;8.40;99.90
6865;DHT22;3471;49.678;8.388;2023-01-10T10:36:54;8.50;99.90
6865;DHT22;3471;49.678;8.388;2023-01-10T10:39:28;8.50;99.90
6865;DHT22;3471;49.678;8.388;2023-01-10T10:41:56;8.60;99.90
6865;DHT22;3471;49.678;8.388;2023-01-10T10:47:22;8.50;99.90
6865;DHT22;3471;49.678;8.388;2023-01-10T10:52:33;8.30;99.90
6865;DHT22;3471;49.678;8.388;2023-01-10T10:54:59;8.30;99.90
6865;DHT22;3471;49.678;8.388;2023-01-10T10:57:31;8.30;99.90
6865;DHT22;3471;49.678;8.388;2023-01-10T10:59:57;8.20;99.90
6865;DHT22;3471;49.678;8.388;2023-01-10T11:02:30;8.20;99.90
6865;DHT22;3471;49.678;8.388;2023-01-10T11:04:59;8.20;99.90
6865;DHT22;3471;49.678;8.388;2023-01-10T11:07:32;8.20;99.90
6865;DHT22;3471;49.678;8.388;2023-01-10T11:10:18;8.20;99.90
6865;DHT22;3471;49.678;8.388;2023-01-10T11:12:47;8.30;99.90
6865;DHT22;3471;49.678;8.388;2023-01-10T11:15:45;8.40;99.90
6865;DHT22;3471;49.678;8.388;2023-01-10T11:18:14;8.60;99.90
6865;DHT22;3471;49.678;8.388;2023-01-10T11:31:44;9.20;99.90
6865;DHT22;3471;49.678;8.388;2023-01-10T11:34:32;10.00;99.90
6865;DHT22;3471;49.678;8.388;2023-01-10T11:37:16;11.00;99.90
6865;DHT22;3471;49.678;8.388;2023-01-10T11:39:43;11.40;99.90
6865;DHT22;3471;49.678;8.388;2023-01-10T11:42:38;11.30;99.90
6865;DHT22;3471;49.678;8.388;2023-01-10T11:48:07;10.50;99.90
6865;DHT22;3471;49.678;8.388;2023-01-10T11:50:38;10.20;99.90
6865;DHT22;3471;49.678;8.388;2023-01-10T11:53:06;10.00;99.90
6865;DHT22;3471;49.678;8.388;2023-01-10T11:55:35;9.90;99.90
6865;DHT22;3471;49.678;8.388;2023-01-10T11:58:06;9.80;99.90
6865;DHT22;3471;49.678;8.388;2023-01-10T12:00:37;9.70;99.90
6865;DHT22;3471;49.678;8.388;2023-01-10T12:03:35;9.50;99.90
6865;DHT22;3471;49.678;8.388;2023-01-10T12:06:08;9.40;99.90
6865;DHT22;3471;49.678;8.388;2023-01-10T12:08:38;9.30;99.90
6865;DHT22;3471;49.678;8.388;2023-01-10T12:11:31;9.40;99.90
6865;DHT22;3471;49.678;8.388;2023-01-10T12:13:58;9.50;99.90
6865;DHT22;3471;49.678;8.388;2023-01-10T12:16:32;9.50;99.90
6865;DHT22;3471;49.678;8.388;2023-01-10T12:19:00;9.60;99.90
6865;DHT22;3471;49.678;8.388;2023-01-10T12:21:40;9.80;99.90
6865;DHT22;3471;49.678;8.388;2023-01-10T12:24:14;9.80;99.90
6865;DHT22;3471;49.678;8.388;2023-01-10T12:26:41;9.80;99.90
6865;DHT22;3471;49.678;8.388;2023-01-10T12:29:11;9.80;99.90
6865;DHT22;3471;49.678;8.388;2023-01-10T12:31:39;9.70;99.90
6865;DHT22;3471;49.678;8.388;2023-01-10T12:34:18;9.80;99.90
6865;DHT22;3471;49.678;8.388;2023-01-10T12:39:45;10.10;99.90
6865;DHT22;3471;49.678;8.388;2023-01-10T12:42:28;10.00;99.90
6865;DHT22;3471;49.678;8.388;2023-01-10T12:45:23;9.90;99.90
6865;DHT22;3471;49.678;8.388;2023-01-10T12:48:06;9.70;99.90
6865;DHT22;3471;49.678;8.388;2023-01-10T12:50:44;9.50;99.90
6865;DHT22;3471;49.678;8.388;2023-01-10T12:55:57;9.40;99.90
6865;DHT22;3471;49.678;8.388;2023-01-10T12:58:32;9.30;99.90
6865;DHT22;3471;49.678;8.388;2023-01-10T13:00:59;9.20;99.90
6865;DHT22;3471;49.678;8.388;2023-01-10T13:03:28;9.20;99.90
6865;DHT22;3471;49.678;8.388;2023-01-10T13:05:59;9.10;99.90
6865;DHT22;3471;49.678;8.388;2023-01-10T13:08:27;9.00;99.90
6865;DHT22;3471;49.678;8.388;2023-01-10T13:10:56;9.00;99.90
6865;DHT22;3471;49.678;8.388;2023-01-10T13:13:41;9.00;99.90
6865;DHT22;3471;49.678;8.388;2023-01-10T13:21:23;9.00;99.90
6865;DHT22;3471;49.678;8.388;2023-01-10T13:23:56;9.00;99.90
6865;DHT22;3471;49.678;8.388;2023-01-10T13:26:22;9.10;99.90
6865;DHT22;3471;49.678;8.388;2023-01-10T13:28:58;9.10;99.90
6865;DHT22;3471;49.678;8.388;2023-01-10T13:31:32;9.10;99.90
6865;DHT22;3471;49.678;8.388;2023-01-10T13:39:36;9.10;99.90
6865;DHT22;3471;49.678;8.388;2023-01-10T14:00:51;9.00;99.90
6865;DHT22;3471;49.678;8.388;2023-01-10T14:08:54;9.00;99.90
6865;DHT22;3471;49.678;8.388;2023-01-10T14:11:22;9.10;99.90
6865;DHT22;3471;49.678;8.388;2023-01-10T14:13:55;9.10;99.90
6865;DHT22;3471;49.678;8.388;2023-01-10T14:16:29;9.10;99.90
6865;DHT22;3471;49.678;8.388;2023-01-10T14:18:56;9.20;99.90
6865;DHT22;3471;49.678;8.388;2023-01-10T14:21:26;9.20;99.90
6865;DHT22;3471;49.678;8.388;2023-01-10T14:23:54;9.20;99.90
6865;DHT22;3471;49.678;8.388;2023-01-10T14:26:37;9.20;99.90
6865;DHT22;3471;49.678;8.388;2023-01-10T14:29:06;9.10;99.90
6865;DHT22;3471;49.678;8.388;2023-01-10T14:31:37;9.10;99.90
6865;DHT22;3471;49.678;8.388;2023-01-10T14:34:08;9.10;99.90
6865;DHT22;3471;49.678;8.388;2023-01-10T14:36:48;9.10;99.90
6865;DHT22;3471;49.678;8.388;2023-01-10T14:39:14;9.00;99.90
6865;DHT22;3471;49.678;8.388;2023-01-10T14:41:43;8.90;99.90
6865;DHT22;3471;49.678;8.388;2023-01-10T14:46:48;8.90;99.90
6865;DHT22;3471;49.678;8.388;2023-01-10T14:49:35;8.80;99.90
6865;DHT22;3471;49.678;8.388;2023-01-10T14:52:17;8.80;99.90
6865;DHT22;3471;49.678;8.388;2023-01-10T14:54:47;8.90;99.90
6865;DHT22;3471;49.678;8.388;2023-01-10T14:57:22;8.80;99.90
6865;DHT22;3471;49.678;8.388;2023-01-10T14:59:49;8.90;99.90
6865;DHT22;3471;49.678;8.388;2023-01-10T15:02:21;8.80;99.90
6865;DHT22;3471;49.678;8.388;2023-01-10T15:04:54;8.80;99.90
6865;DHT22;3471;49.678;8.388;2023-01-10T15:07:21;8.90;99.90
6865;DHT22;3471;49.678;8.388;2023-01-10T15:09:58;8.90;99.90
6865;DHT22;3471;49.678;8.388;2023-01-10T15:12:28;9.00;99.90
6865;DHT22;3471;49.678;8.388;2023-01-10T15:15:02;9.00;99.90
6865;DHT22;3471;49.678;8.388;2023-01-10T15:17:28;8.90;99.90
6865;DHT22;3471;49.678;8.388;2023-01-10T15:19:55;8.90;99.90
6865;DHT22;3471;49.678;8.388;2023-01-10T15:22:28;8.90;99.90
6865;DHT22;3471;49.678;8.388;2023-01-10T15:27:27;8.80;99.90
6865;DHT22;3471;49.678;8.388;2023-01-10T15:29:53;8.70;99.90
6865;DHT22;3471;49.678;8.388;2023-01-10T15:32:36;8.70;99.90
6865;DHT22;3471;49.678;8.388;2023-01-10T15:35:05;8.60;99.90
6865;DHT22;3471;49.678;8.388;2023-01-10T15:37:35;8.60;99.90
6865;DHT22;3471;49.678;8.388;2023-01-10T15:40:04;8.50;99.90
6865;DHT22;3471;49.678;8.388;2023-01-10T15:42:31;8.50;99.90
6865;DHT22;3471;49.678;8.388;2023-01-10T15:44:57;8.50;99.90
6865;DHT22;3471;49.678;8.388;2023-01-10T15:53:16;8.40;99.90
6865;DHT22;3471;49.678;8.388;2023-01-10T15:55:50;8.30;99.90
6865;DHT22;3471;49.678;8.388;2023-01-10T16:00:53;8.30;99.90
6865;DHT22;3471;49.678;8.388;2023-01-10T16:03:26;8.30;99.90
6865;DHT22;3471;49.678;8.388;2023-01-10T16:05:56;8.30;99.90
6865;DHT22;3471;49.678;8.388;2023-01-10T16:08:30;8.30;99.90
6865;DHT22;3471;49.678;8.388;2023-01-10T16:11:01;8.30;99.90
6865;DHT22;3471;49.678;8.388;2023-01-10T16:13:27;8.30;99.90
6865;DHT22;3471;49.678;8.388;2023-01-10T16:15:57;8.20;99.90
6865;DHT22;3471;49.678;8.388;2023-01-10T16:18:24;8.20;99.90
6865;DHT22;3471;49.678;8.388;2023-01-10T16:20:52;8.20;99.90
6865;DHT22;3471;49.678;8.388;2023-01-10T16:23:30;8.10;99.90
6865;DHT22;3471;49.678;8.388;2023-01-10T16:25:59;8.10;99.90
6865;DHT22;3471;49.678;8.388;2023-01-10T16:28:26;8.10;99.90
6865;DHT22;3471;49.678;8.388;2023-01-10T16:30:55;8.10;99.90
6865;DHT22;3471;49.678;8.388;2023-01-10T16:33:22;8.10;99.90
6865;DHT22;3471;49.678;8.388;2023-01-10T16:35:51;8.00;99.90
6865;DHT22;3471;49.678;8.388;2023-01-10T16:38:18;8.00;99.90
6865;DHT22;3471;49.678;8.388;2023-01-10T16:40:50;8.10;99.90
6865;DHT22;3471;49.678;8.388;2023-01-10T16:43:16;8.10;99.90
6865;DHT22;3471;49.678;8.388;2023-01-10T16:45:44;8.10;99.90
6865;DHT22;3471;49.678;8.388;2023-01-10T16:48:10;8.10;99.90
6865;DHT22;3471;49.678;8.388;2023-01-10T16:50:36;8.10;99.90
6865;DHT22;3471;49.678;8.388;2023-01-10T16:53:02;8.10;99.90
6865;DHT22;3471;49.678;8.388;2023-01-10T16:55:49;8.10;99.90
6865;DHT22;3471;49.678;8.388;2023-01-10T16:58:15;8.10;99.90
6865;DHT22;3471;49.678;8.388;2023-01-10T17:00:43;8.00;99.90
6865;DHT22;3471;49.678;8.388;2023-01-10T17:03:27;8.00;99.90
6865;DHT22;3471;49.678;8.388;2023-01-10T17:05:53;8.00;99.90
6865;DHT22;3471;49.678;8.388;2023-01-10T17:08:21;8.00;99.90
6865;DHT22;3471;49.678;8.388;2023-01-10T17:10:54;8.10;99.90
6865;DHT22;3471;49.678;8.388;2023-01-10T17:13:31;8.10;99.90
6865;DHT22;3471;49.678;8.388;2023-01-10T17:15:57;8.10;99.90
6865;DHT22;3471;49.678;8.388;2023-01-10T17:18:25;8.10;99.90
6865;DHT22;3471;49.678;8.388;2023-01-10T17:20:53;8.00;99.90
6865;DHT22;3471;49.678;8.388;2023-01-10T17:23:20;8.00;99.90
6865;DHT22;3471;49.678;8.388;2023-01-10T17:25:46;8.00;99.90
6865;DHT22;3471;49.678;8.388;2023-01-10T17:28:14;8.00;99.90
6865;DHT22;3471;49.678;8.388;2023-01-10T17:30:40;8.00;99.90
6865;DHT22;3471;49.678;8.388;2023-01-10T17:33:07;8.00;99.90
6865;DHT22;3471;49.678;8.388;2023-01-10T17:35:42;8.00;99.90
6865;DHT22;3471;49.678;8.388;2023-01-10T17:38:10;8.00;99.90
6865;DHT22;3471;49.678;8.388;2023-01-10T17:40:43;7.90;99.90
6865;DHT22;3471;49.678;8.388;2023-01-10T17:43:10;7.90;99.90
6865;DHT22;3471;49.678;8.388;2023-01-10T17:45:44;7.90;99.90
6865;DHT22;3471;49.678;8.388;2023-01-10T17:48:11;7.90;99.90
6865;DHT22;3471;49.678;8.388;2023-01-10T17:50:39;7.90;99.90
6865;DHT22;3471;49.678;8.388;2023-01-10T17:53:05;8.00;99.90
6865;DHT22;3471;49.678;8.388;2023-01-10T17:55:30;8.00;99.90
6865;DHT22;3471;49.678;8.388;2023-01-10T17:57:56;7.90;99.90
6865;DHT22;3471;49.678;8.388;2023-01-10T18:00:22;7.90;99.90
6865;DHT22;3471;49.678;8.388;2023-01-10T18:02:48;7.90;99.90
6865;DHT22;3471;49.678;8.388;2023-01-10T18:05:13;7.80;99.90
6865;DHT22;3471;49.678;8.388;2023-01-10T18:07:39;7.90;99.90
6865;DHT22;3471;49.678;8.388;2023-01-10T18:10:05;7.90;99.90
6865;DHT22;3471;49.678;8.388;2023-01-10T18:12:36;7.80;99.90
6865;DHT22;3471;49.678;8.388;2023-01-10T18:15:02;7.80;99.90
6865;DHT22;3471;49.678;8.388;2023-01-10T18:17:28;7.90;99.90
6865;DHT22;3471;49.678;8.388;2023-01-10T18:19:54;7.90;99.90
6865;DHT22;3471;49.678;8.388;2023-01-10T18:22:20;7.90;99.90
6865;DHT22;3471;49.678;8.388;2023-01-10T18:25:05;7.90;99.90
6865;DHT22;3471;49.678;8.388;2023-01-10T18:27:31;7.90;99.90
6865;DHT22;3471;49.678;8.388;2023-01-10T18:29:56;7.90;99.90
6865;DHT22;3471;49.678;8.388;2023-01-10T18:32:22;7.90;99.90
6865;DHT22;3471;49.678;8.388;2023-01-10T18:34:48;8.00;99.90
6865;DHT22;3471;49.678;8.388;2023-01-10T18:37:15;7.90;99.90
6865;DHT22;3471;49.678;8.388;2023-01-10T18:39:41;7.90;99.90
6865;DHT22;3471;49.678;8.388;2023-01-10T18:42:10;7.90;99.90